Epic Capri — 9HA2845 — position and weather

sailwx.info

Track history (hours):
 
Tides and Currents Weather Stations Pressure Air Temp Water Temp Dewpoint Dewpoint Depression Visibility Wind Speed Wind Dir Waves Ship Positions

Epic Capri

Last reported at 2016-May-24 09:14 UTC. Time now 2016-May-24 17:46 UTC.
Position N 39°04' W 009°57'.

Length 99 m; draft 5.4 m.

Type: Ship (hazmat cat B). MMSI: 256325000.

Date/timePositionNaut miles runAvg speedWind from/ knotsBaromVisibWave heightAir tempDewpointWater temp
2016-May-24 09:14N 39°04' W 009°57'1710.0
2016-May-24 07:32N 38°47' W 009°57'39 9.2
2016-May-24 03:18N 38°13' W 009°32'8 9.6
2016-May-24 02:31N 38°10' W 009°24'10 9.9
2016-May-24 01:33N 38°05' W 009°13'1010.2
2016-May-24 00:33N 38°01' W 009°02'8 7.9
2016-May-23 23:33N 37°57' W 008°53'1 0.5
2016-May-23 22:32N 37°57' W 008°53'0 0.0
2016-May-23 21:32N 37°57' W 008°53'0 0.0
2016-May-23 20:32N 37°57' W 008°53'0 0.0
2016-May-23 19:32N 37°57' W 008°53'0 0.0
2016-May-23 18:32N 37°57' W 008°53'0 0.0
2016-May-23 17:32N 37°57' W 008°53'0 0.0
2016-May-23 16:32N 37°57' W 008°53'0 0.0
2016-May-23 15:32N 37°57' W 008°53'0 0.0
2016-May-23 14:32N 37°57' W 008°53'0 0.0
2016-May-23 13:32N 37°57' W 008°53'0 0.0
2016-May-23 12:32N 37°57' W 008°53'0 0.0
2016-May-23 11:32N 37°57' W 008°53'0 0.0
2016-May-23 10:32N 37°57' W 008°53'0 0.0
2016-May-23 09:32N 37°57' W 008°53'0 0.0
2016-May-23 08:32N 37°57' W 008°53'0 0.0
2016-May-23 07:32N 37°57' W 008°53'0 0.0
2016-May-23 06:32N 37°57' W 008°53'0 0.0
2016-May-23 05:32N 37°57' W 008°53'0 0.0
2016-May-23 04:32N 37°57' W 008°53'0 0.0
2016-May-23 03:32N 37°57' W 008°53'0 0.0
2016-May-23 02:32N 37°57' W 008°53'0 0.0
2016-May-23 01:32N 37°57' W 008°53'1 0.7
2016-May-23 00:33N 37°56' W 008°53'2 2.1
2016-May-22 23:31N 37°54' W 008°52'0 0.0
2016-May-22 22:31N 37°54' W 008°52'0 0.0
2016-May-22 21:31N 37°54' W 008°52'0 0.0
2016-May-22 20:31N 37°54' W 008°52'0 0.0
2016-May-22 19:31N 37°54' W 008°52'0 0.0
2016-May-22 18:31N 37°54' W 008°52'0 0.0
2016-May-22 17:31N 37°54' W 008°52'0 0.0
2016-May-22 16:31N 37°54' W 008°52'4 4.7
2016-May-22 15:33N 37°53' W 008°57'10 9.7
2016-May-22 14:33N 37°53' W 009°10'1010.3
2016-May-22 13:33N 37°53' W 009°23'  
2016-May-20 04:22N 37°53' W 023°01'1011.5
2016-May-20 03:30N 37°53' W 023°13'1111.2
2016-May-20 02:33N 37°53' W 023°26'1111.4
2016-May-20 01:33N 37°53' W 023°41'1111.1
2016-May-20 00:33N 37°53' W 023°55'1110.9
2016-May-19 23:33N 37°51' W 024°09'1111.2
2016-May-19 22:33N 37°48' W 024°22'1211.5
2016-May-19 21:33N 37°45' W 024°36'1111.4
2016-May-19 20:33N 37°42' W 024°50'1111.5
2016-May-19 19:33N 37°40' W 025°04'1111.3
2016-May-19 18:34N 37°40' W 025°19'1111.1
2016-May-19 17:34N 37°41' W 025°33'7 6.7
2016-May-19 16:33N 37°44' W 025°40'0 0.0
2016-May-19 15:31N 37°44' W 025°40'0 0.0
2016-May-19 14:31N 37°44' W 025°40'0 0.0
2016-May-19 13:31N 37°44' W 025°40'0 0.0
2016-May-19 12:31N 37°44' W 025°40'0 0.0
2016-May-19 11:31N 37°44' W 025°40'0 0.0
2016-May-19 10:31N 37°44' W 025°40'0 0.0
2016-May-19 09:31N 37°44' W 025°40'0 0.0
2016-May-19 08:31N 37°44' W 025°40'0 0.0
2016-May-19 07:31N 37°44' W 025°40'0 0.0
2016-May-19 06:31N 37°44' W 025°40'0 0.0
2016-May-19 05:31N 37°44' W 025°40'0 0.0
2016-May-19 04:31N 37°44' W 025°40'0 0.0
2016-May-19 03:31N 37°44' W 025°40'0 0.0
2016-May-19 02:31N 37°44' W 025°40'0 0.0
2016-May-19 01:31N 37°44' W 025°40'0 0.0
2016-May-19 00:31N 37°44' W 025°40'0 0.1
2016-May-18 23:34N 37°44' W 025°40'4 4.0
2016-May-18 22:33N 37°42' W 025°44'1010.2
2016-May-18 21:33N 37°49' W 025°54'1010.4
2016-May-18 20:33N 37°56' W 026°03'1110.8
2016-May-18 19:33N 38°04' W 026°12'1110.7
2016-May-18 18:33N 38°12' W 026°22'1110.5
2016-May-18 17:33N 38°19' W 026°31'1110.9
2016-May-18 16:33N 38°27' W 026°41'1111.3
2016-May-18 15:33N 38°35' W 026°51'1010.4
2016-May-18 14:33N 38°43' W 027°01'2 0.2
2016-May-18 04:26N 38°43' W 027°03'3 2.4
2016-May-18 03:17N 38°42' W 026°60'3 3.4
2016-May-18 02:19N 38°38' W 026°60'7 8.9
2016-May-18 01:33N 38°34' W 027°07'1010.4
2016-May-18 00:33N 38°32' W 027°20'1110.5
2016-May-17 23:33N 38°29' W 027°33'1010.2
2016-May-17 22:33N 38°29' W 027°46'1110.7
2016-May-17 21:34N 38°31' W 027°59'1010.4
2016-May-17 20:33N 38°33' W 028°12'20 4.8
2016-May-17 16:27N 38°32' W 028°37'0 0.0
2016-May-17 15:33N 38°32' W 028°37'0 0.0
2016-May-17 14:33N 38°32' W 028°37'0 0.0
2016-May-17 13:33N 38°32' W 028°37'0 0.0
2016-May-17 12:33N 38°32' W 028°37'0 0.0
2016-May-17 11:33N 38°32' W 028°37'2 1.9
2016-May-17 10:33N 38°32' W 028°35'7 7.3
2016-May-17 09:33N 38°36' W 028°27'9 9.5
2016-May-17 08:34N 38°33' W 028°15'10 9.9
2016-May-17 07:33N 38°31' W 028°03'1010.4
2016-May-17 06:33N 38°28' W 027°50'1010.1
2016-May-17 05:33N 38°25' W 027°38'10 9.9
2016-May-17 04:33N 38°22' W 027°26'10 9.6
2016-May-17 03:33N 38°19' W 027°14'1010.0
2016-May-17 02:33N 38°16' W 027°02'1010.4
2016-May-17 01:33N 38°14' W 026°49'1010.5
2016-May-17 00:33N 38°10' W 026°37'1010.2
2016-May-16 23:33N 38°07' W 026°24'1010.2
2016-May-16 22:33N 38°05' W 026°12'1010.1
2016-May-16 21:34N 38°04' W 025°59'1010.3
2016-May-16 20:33N 38°03' W 025°46'1010.0
2016-May-16 19:33N 38°01' W 025°33'1010.1
2016-May-16 18:34N 38°00' W 025°20'1010.4
2016-May-16 17:33N 37°59' W 025°07'1010.5
2016-May-16 16:33N 37°58' W 024°54'1010.3
2016-May-16 15:33N 37°57' W 024°41'1010.0
2016-May-16 14:33N 37°56' W 024°29'1010.1
2016-May-16 13:34N 37°54' W 024°16'1010.2
2016-May-16 12:33N 37°53' W 024°03'1010.2
2016-May-16 11:33N 37°53' W 023°50'1010.3
2016-May-16 10:33N 37°53' W 023°37'1010.0
2016-May-16 09:33N 37°53' W 023°24'  
Track history (hours):
 
Tides and Currents Weather Stations Pressure Air Temp Water Temp Dewpoint Dewpoint Depression Visibility Wind Speed Wind Dir Waves Ship Positions

Epic Capri

Last reported at 2016-May-24 09:14 UTC. Time now 2016-May-24 17:46 UTC.
Position N 39°04' W 009°57'.

Length 99 m; draft 5.4 m.

Type: Ship (hazmat cat B). MMSI: 256325000.

Date/timePositionNaut miles runAvg speedWind from/ knotsBaromVisibWave heightAir tempDewpointWater temp
2016-May-24 09:14N 39°04' W 009°57'1710.0
2016-May-24 07:32N 38°47' W 009°57'39 9.2
2016-May-24 03:18N 38°13' W 009°32'8 9.6
2016-May-24 02:31N 38°10' W 009°24'10 9.9
2016-May-24 01:33N 38°05' W 009°13'1010.2
2016-May-24 00:33N 38°01' W 009°02'8 7.9
2016-May-23 23:33N 37°57' W 008°53'1 0.5
2016-May-23 22:32N 37°57' W 008°53'0 0.0
2016-May-23 21:32N 37°57' W 008°53'0 0.0
2016-May-23 20:32N 37°57' W 008°53'0 0.0
2016-May-23 19:32N 37°57' W 008°53'0 0.0
2016-May-23 18:32N 37°57' W 008°53'0 0.0
2016-May-23 17:32N 37°57' W 008°53'0 0.0
2016-May-23 16:32N 37°57' W 008°53'0 0.0
2016-May-23 15:32N 37°57' W 008°53'0 0.0
2016-May-23 14:32N 37°57' W 008°53'0 0.0
2016-May-23 13:32N 37°57' W 008°53'0 0.0
2016-May-23 12:32N 37°57' W 008°53'0 0.0
2016-May-23 11:32N 37°57' W 008°53'0 0.0
2016-May-23 10:32N 37°57' W 008°53'0 0.0
2016-May-23 09:32N 37°57' W 008°53'0 0.0
2016-May-23 08:32N 37°57' W 008°53'0 0.0
2016-May-23 07:32N 37°57' W 008°53'0 0.0
2016-May-23 06:32N 37°57' W 008°53'0 0.0
2016-May-23 05:32N 37°57' W 008°53'0 0.0
2016-May-23 04:32N 37°57' W 008°53'0 0.0
2016-May-23 03:32N 37°57' W 008°53'0 0.0
2016-May-23 02:32N 37°57' W 008°53'0 0.0
2016-May-23 01:32N 37°57' W 008°53'1 0.7
2016-May-23 00:33N 37°56' W 008°53'2 2.1
2016-May-22 23:31N 37°54' W 008°52'0 0.0
2016-May-22 22:31N 37°54' W 008°52'0 0.0
2016-May-22 21:31N 37°54' W 008°52'0 0.0
2016-May-22 20:31N 37°54' W 008°52'0 0.0
2016-May-22 19:31N 37°54' W 008°52'0 0.0
2016-May-22 18:31N 37°54' W 008°52'0 0.0
2016-May-22 17:31N 37°54' W 008°52'0 0.0
2016-May-22 16:31N 37°54' W 008°52'4 4.7
2016-May-22 15:33N 37°53' W 008°57'10 9.7
2016-May-22 14:33N 37°53' W 009°10'1010.3
2016-May-22 13:33N 37°53' W 009°23'  
2016-May-20 04:22N 37°53' W 023°01'1011.5
2016-May-20 03:30N 37°53' W 023°13'1111.2
2016-May-20 02:33N 37°53' W 023°26'1111.4
2016-May-20 01:33N 37°53' W 023°41'1111.1
2016-May-20 00:33N 37°53' W 023°55'1110.9
2016-May-19 23:33N 37°51' W 024°09'1111.2
2016-May-19 22:33N 37°48' W 024°22'1211.5
2016-May-19 21:33N 37°45' W 024°36'1111.4
2016-May-19 20:33N 37°42' W 024°50'1111.5
2016-May-19 19:33N 37°40' W 025°04'1111.3
2016-May-19 18:34N 37°40' W 025°19'1111.1
2016-May-19 17:34N 37°41' W 025°33'7 6.7
2016-May-19 16:33N 37°44' W 025°40'0 0.0
2016-May-19 15:31N 37°44' W 025°40'0 0.0
2016-May-19 14:31N 37°44' W 025°40'0 0.0
2016-May-19 13:31N 37°44' W 025°40'0 0.0
2016-May-19 12:31N 37°44' W 025°40'0 0.0
2016-May-19 11:31N 37°44' W 025°40'0 0.0
2016-May-19 10:31N 37°44' W 025°40'0 0.0
2016-May-19 09:31N 37°44' W 025°40'0 0.0
2016-May-19 08:31N 37°44' W 025°40'0 0.0
2016-May-19 07:31N 37°44' W 025°40'0 0.0
2016-May-19 06:31N 37°44' W 025°40'0 0.0
2016-May-19 05:31N 37°44' W 025°40'0 0.0
2016-May-19 04:31N 37°44' W 025°40'0 0.0
2016-May-19 03:31N 37°44' W 025°40'0 0.0
2016-May-19 02:31N 37°44' W 025°40'0 0.0
2016-May-19 01:31N 37°44' W 025°40'0 0.0
2016-May-19 00:31N 37°44' W 025°40'0 0.1
2016-May-18 23:34N 37°44' W 025°40'4 4.0
2016-May-18 22:33N 37°42' W 025°44'1010.2
2016-May-18 21:33N 37°49' W 025°54'1010.4
2016-May-18 20:33N 37°56' W 026°03'1110.8
2016-May-18 19:33N 38°04' W 026°12'1110.7
2016-May-18 18:33N 38°12' W 026°22'1110.5
2016-May-18 17:33N 38°19' W 026°31'1110.9
2016-May-18 16:33N 38°27' W 026°41'1111.3
2016-May-18 15:33N 38°35' W 026°51'1010.4
2016-May-18 14:33N 38°43' W 027°01'2 0.2
2016-May-18 04:26N 38°43' W 027°03'3 2.4
2016-May-18 03:17N 38°42' W 026°60'3 3.4
2016-May-18 02:19N 38°38' W 026°60'7 8.9
2016-May-18 01:33N 38°34' W 027°07'1010.4
2016-May-18 00:33N 38°32' W 027°20'1110.5
2016-May-17 23:33N 38°29' W 027°33'1010.2
2016-May-17 22:33N 38°29' W 027°46'1110.7
2016-May-17 21:34N 38°31' W 027°59'1010.4
2016-May-17 20:33N 38°33' W 028°12'20 4.8
2016-May-17 16:27N 38°32' W 028°37'0 0.0
2016-May-17 15:33N 38°32' W 028°37'0 0.0
2016-May-17 14:33N 38°32' W 028°37'0 0.0
2016-May-17 13:33N 38°32' W 028°37'0 0.0
2016-May-17 12:33N 38°32' W 028°37'0 0.0
2016-May-17 11:33N 38°32' W 028°37'2 1.9
2016-May-17 10:33N 38°32' W 028°35'7 7.3
2016-May-17 09:33N 38°36' W 028°27'9 9.5
2016-May-17 08:34N 38°33' W 028°15'10 9.9
2016-May-17 07:33N 38°31' W 028°03'1010.4
2016-May-17 06:33N 38°28' W 027°50'1010.1
2016-May-17 05:33N 38°25' W 027°38'10 9.9
2016-May-17 04:33N 38°22' W 027°26'10 9.6
2016-May-17 03:33N 38°19' W 027°14'1010.0
2016-May-17 02:33N 38°16' W 027°02'1010.4
2016-May-17 01:33N 38°14' W 026°49'1010.5
2016-May-17 00:33N 38°10' W 026°37'1010.2
2016-May-16 23:33N 38°07' W 026°24'1010.2
2016-May-16 22:33N 38°05' W 026°12'1010.1
2016-May-16 21:34N 38°04' W 025°59'1010.3
2016-May-16 20:33N 38°03' W 025°46'1010.0
2016-May-16 19:33N 38°01' W 025°33'1010.1
2016-May-16 18:34N 38°00' W 025°20'1010.4
2016-May-16 17:33N 37°59' W 025°07'1010.5
2016-May-16 16:33N 37°58' W 024°54'1010.3
2016-May-16 15:33N 37°57' W 024°41'1010.0
2016-May-16 14:33N 37°56' W 024°29'1010.1
2016-May-16 13:34N 37°54' W 024°16'1010.2
2016-May-16 12:33N 37°53' W 024°03'1010.2
2016-May-16 11:33N 37°53' W 023°50'1010.3
2016-May-16 10:33N 37°53' W 023°37'1010.0
2016-May-16 09:33N 37°53' W 023°24'  

Dump ship's entire track history